Estación Meteorológica Peña el Pijo (Robertgarden) [ 07/21/17 06:35:30 CEST ]

Fecha Hora Presion(HPa) Temp (°C) Humedad % Rocio (°C) Viento ( m/s) Direccion Lluvia 1Hora(mm) Lluvia 24H(mm) LLuvia Total(mm)
2017-Apr-01 01:01:49 1010.500 10.6 70 5.4     0.51 0.51 1357.67
2017-Apr-01 02:01:42 1010.100 11.0 71 6.0       0.51 1357.67
2017-Apr-01 03:02:09 1010.000 9.5 69 4.1       0.51 1357.67
2017-Apr-01 04:02:00 1009.500 8.3 68 2.7       0.51 1357.67
2017-Apr-01 05:02:14 1009.300 8.2 69 2.9       0.51 1357.67
2017-Apr-01 06:02:24 1009.000 7.8 68 2.3       0.51 1357.67
2017-Apr-01 07:01:55 1009.100 7.3 65 1.1       0.51 1357.67
2017-Apr-01 08:01:34 1009.600 6.6 64 0.2       0.51 1357.67
2017-Apr-01 09:01:52 1010.200 8.1 60 0.8       0.51 1357.67
2017-Apr-01 10:01:41 1010.200 11.8 51 2.0       0.51 1357.67
2017-Apr-01 11:01:50 1010.800 13.9 44 1.8       0.51 1357.67
2017-Apr-01 12:01:47 1010.800 15.6 41 2.4       0.51 1357.67
2017-Apr-01 13:01:41 1010.500 18.2 34 2.0       0.51 1357.67
2017-Apr-01 14:01:50 1010.400 17.4 32 0.5       0.51 1357.67
2017-Apr-01 15:01:48 1010.300 17.4 31 0.1       0.51 1357.67
2017-Apr-01 16:01:49 1009.800 18.3 27 -1.2       0.51 1357.67
2017-Apr-01 17:01:24 1009.700 17.2 29 -1.1       0.51 1357.67
2017-Apr-01 18:01:51 1009.600 16.8 32 -0.1       0.51 1357.67
2017-Apr-01 19:01:47 1010.100 15.5 26 -4.1 0.6 W   0.51 1357.67
2017-Apr-01 20:01:38 1010.600 13.2 32 -3.2 1.2 N   0.51 1357.67
2017-Apr-01 21:01:38 1010.700 11.4 34 -4.0       0.51 1357.67
2017-Apr-01 22:01:55 1011.800 8.8 42 -3.5       0.51 1357.67
2017-Apr-01 23:01:49 1012.000 6.6 51 -2.8       0.51 1357.67

Temperatura Máxima:18°    Temperatura Mínima:
Presión Máxima:1012.000 Hpa    Presión Mínima:1009.000 Hpa


Volver